Time;durP1;ratioP1;P1;durP2;ratioP2;P2;SDS_P1;SDS_P2;PMS_P1;PMS_P2;Temp;Humidity;BMP_temperature;BMP_pressure;BME280_temperature;BME280_humidity;BME280_pressure;Samples;Min_cycle;Max_cycle;Signal;HPM_P1;HPM_P2
2022/11/06 00:01:52;;;;;;;5.13;4.72;;;17.40;86.10;;;;;;5034091;28;20193;-69
2022/11/06 00:04:18;;;;;;;5.53;4.72;;;17.40;86.00;;;;;;5028052;28;20213;-68
2022/11/06 00:06:46;;;;;;;5.82;5.40;;;17.40;85.80;;;;;;5014086;28;20210;-68
2022/11/06 00:09:16;;;;;;;5.40;5.00;;;17.40;86.20;;;;;;5027519;28;20256;-67
2022/11/06 00:11:42;;;;;;;5.55;5.05;;;17.40;85.80;;;;;;5034095;28;20221;-68
2022/11/06 00:14:09;;;;;;;5.68;5.18;;;17.40;85.60;;;;;;5042065;28;20189;-68
2022/11/06 00:16:38;;;;;;;5.15;4.75;;;17.40;85.30;;;;;;5033802;28;20242;-68
2022/11/06 00:19:05;;;;;;;5.50;5.00;;;17.40;85.30;;;;;;5034113;28;20269;-69
2022/11/06 00:21:32;;;;;;;5.32;4.93;;;17.40;85.60;;;;;;5033989;28;20213;-69
2022/11/06 00:24:00;;;;;;;5.18;4.72;;;17.40;85.10;;;;;;5034114;28;20210;-69
2022/11/06 00:26:30;;;;;;;6.18;5.57;;;17.40;85.10;;;;;;5034068;28;20209;-68
2022/11/06 00:28:57;;;;;;;5.75;5.25;;;17.40;85.00;;;;;;5033379;28;20236;-68
2022/11/06 00:31:30;;;;;;;5.75;5.25;;;17.40;85.30;;;;;;5051627;28;20179;-68
2022/11/06 00:33:58;;;;;;;5.65;5.15;;;17.30;85.10;;;;;;5019045;28;20198;-68
2022/11/06 00:36:29;;;;;;;5.40;5.00;;;17.40;85.10;;;;;;5035342;28;20255;-69
2022/11/06 00:38:56;;;;;;;5.82;5.32;;;17.30;85.50;;;;;;5037193;28;20179;-69
2022/11/06 00:41:23;;;;;;;5.43;4.97;;;17.30;85.40;;;;;;5036915;28;20642;-67
2022/11/06 00:43:53;;;;;;;5.47;5.07;;;17.30;85.70;;;;;;5017866;28;20361;-68
2022/11/06 00:46:18;;;;;;;5.95;5.45;;;17.30;85.70;;;;;;5037083;28;20271;-68
2022/11/06 00:48:45;;;;;;;5.50;5.00;;;17.30;85.20;;;;;;5037396;28;20717;-68
2022/11/06 00:51:18;;;;;;;5.63;5.13;;;17.30;85.10;;;;;;5037149;28;20669;-68
2022/11/06 00:53:45;;;;;;;5.35;4.95;;;17.30;85.10;;;;;;5020670;28;20651;-68
2022/11/06 00:56:15;;;;;;;5.47;4.97;;;17.40;85.10;;;;;;5036753;28;20210;-68
2022/11/06 00:58:42;;;;;;;5.85;5.35;;;17.30;84.50;;;;;;5036988;28;20193;-69
2022/11/06 01:01:21;;;;;;;5.30;4.90;;;17.40;84.70;;;;;;5037103;28;20179;-67
2022/11/06 01:03:53;;;;;;;5.75;5.25;;;17.30;84.60;;;;;;5019925;28;20217;-68
2022/11/06 01:06:22;;;;;;;5.85;5.35;;;17.40;84.60;;;;;;5036849;28;20214;-68
2022/11/06 01:08:49;;;;;;;5.65;5.15;;;17.30;84.60;;;;;;5037025;28;20179;-68
2022/11/06 01:11:38;;;;;;;5.20;4.75;;;17.30;84.60;;;;;;5054646;28;20269;-68
2022/11/06 01:14:06;;;;;;;5.85;5.35;;;17.30;84.80;;;;;;5054616;28;20171;-68
2022/11/06 01:16:32;;;;;;;5.57;5.07;;;17.30;85.00;;;;;;5036661;28;20202;-69
2022/11/06 01:18:58;;;;;;;5.45;5.05;;;17.40;85.30;;;;;;5036502;28;20194;-69
2022/11/06 01:21:35;;;;;;;5.85;5.35;;;17.30;85.20;;;;;;5036728;28;20182;-69
2022/11/06 01:24:08;;;;;;;5.35;4.95;;;17.30;84.80;;;;;;5036321;28;20678;-68
2022/11/06 01:26:35;;;;;;;5.38;4.97;;;17.30;84.50;;;;;;5036844;28;20209;-68
2022/11/06 01:29:01;;;;;;;5.45;4.95;;;17.30;84.00;;;;;;5054241;28;20178;-69
2022/11/06 01:31:30;;;;;;;5.22;4.82;;;17.30;84.40;;;;;;5036780;28;20198;-69
2022/11/06 01:33:58;;;;;;;5.68;5.18;;;17.30;84.20;;;;;;5025507;28;20191;-69
2022/11/06 01:36:26;;;;;;;6.13;5.55;;;17.40;84.20;;;;;;5031173;28;20198;-68
2022/11/06 01:38:55;;;;;;;5.85;5.35;;;17.30;84.00;;;;;;5053802;28;20189;-68
2022/11/06 01:41:33;;;;;;;5.10;4.70;;;17.30;84.00;;;;;;5036302;28;20252;-69
2022/11/06 01:44:25;;;;;;;5.40;4.90;;;17.30;84.40;;;;;;5036116;28;20253;-68
2022/11/06 01:46:51;;;;;;;5.53;5.10;;;17.30;84.50;;;;;;5035996;28;20279;-68
2022/11/06 01:49:17;;;;;;;5.25;4.82;;;17.30;84.50;;;;;;5035810;28;20178;-70
2022/11/06 01:51:54;;;;;;;5.25;4.85;;;17.30;84.20;;;;;;5019699;28;20193;-68
2022/11/06 01:54:24;;;;;;;5.70;5.20;;;17.30;84.40;;;;;;5032485;28;20182;-68
2022/11/06 01:56:55;;;;;;;5.57;5.18;;;17.30;84.80;;;;;;5070525;22;20234;-66
2022/11/06 01:59:25;;;;;;;4.93;4.53;;;17.30;84.00;;;;;;5072723;28;20201;-67
2022/11/06 02:01:51;;;;;;;5.15;4.70;;;17.30;83.50;;;;;;5086119;28;20181;-66
2022/11/06 02:04:23;;;;;;;5.53;5.13;;;17.30;84.00;;;;;;5072356;28;20201;-67
2022/11/06 02:06:50;;;;;;;5.15;4.75;;;17.30;83.60;;;;;;5046131;28;20205;-67
2022/11/06 02:09:17;;;;;;;5.35;4.95;;;17.30;83.60;;;;;;5032723;28;20182;-67
2022/11/06 02:11:50;;;;;;;4.88;4.47;;;17.30;83.60;;;;;;5032441;28;20183;-67
2022/11/06 02:14:38;;;;;;;5.43;5.03;;;17.30;83.60;;;;;;5032383;28;20183;-67
2022/11/06 02:17:26;;;;;;;5.20;4.80;;;17.30;83.90;;;;;;5032138;28;20221;-66
2022/11/06 02:20:33;;;;;;;5.18;4.78;;;17.30;84.10;;;;;;5032691;28;20197;-67
2022/11/06 02:23:07;;;;;;;4.88;4.47;;;17.30;84.20;;;;;;5034488;28;20290;-65
2022/11/06 02:25:46;;;;;;;4.95;4.55;;;17.30;83.60;;;;;;5053237;28;20179;-67
2022/11/06 02:28:31;;;;;;;5.32;4.82;;;17.30;83.40;;;;;;5048777;28;20317;-66
2022/11/06 02:31:07;;;;;;;5.03;4.63;;;17.30;83.50;;;;;;5032444;28;20175;-67
2022/11/06 02:33:50;;;;;;;4.97;4.57;;;17.30;84.00;;;;;;5040069;28;20184;-66
2022/11/06 02:36:26;;;;;;;4.57;4.28;;;17.30;83.70;;;;;;5045692;28;20206;-67
2022/11/06 02:38:59;;;;;;;4.75;4.35;;;17.30;83.70;;;;;;5052907;28;20178;-66
2022/11/06 02:41:32;;;;;;;4.93;4.53;;;17.30;83.60;;;;;;5051808;28;20287;-66
2022/11/06 02:44:05;;;;;;;5.05;4.65;;;17.30;83.50;;;;;;5068504;28;20206;-67
2022/11/06 02:46:40;;;;;;;5.05;4.65;;;17.30;83.20;;;;;;5052018;28;20207;-66
2022/11/06 02:49:22;;;;;;;4.80;4.40;;;17.30;84.00;;;;;;5034961;28;20178;-66
2022/11/06 02:51:55;;;;;;;4.68;4.28;;;17.30;83.30;;;;;;5068641;28;20210;-67
2022/11/06 02:54:25;;;;;;;5.47;4.97;;;17.30;83.30;;;;;;5051618;28;20183;-67
2022/11/06 02:56:56;;;;;;;5.60;5.10;;;17.30;83.70;;;;;;5051429;28;20272;-67
2022/11/06 02:59:38;;;;;;;4.93;4.53;;;17.30;83.40;;;;;;5067538;28;20554;-67
2022/11/06 03:02:12;;;;;;;5.53;5.03;;;17.30;83.70;;;;;;5068245;28;20178;-67
2022/11/06 03:04:57;;;;;;;5.50;5.05;;;17.30;83.30;;;;;;5059781;28;20178;-67
2022/11/06 03:07:46;;;;;;;5.22;4.82;;;17.30;83.00;;;;;;5051178;28;20226;-67
2022/11/06 03:10:12;;;;;;;5.57;5.07;;;17.30;82.90;;;;;;5068380;28;20179;-66
2022/11/06 03:12:55;;;;;;;4.95;4.55;;;17.30;82.90;;;;;;5068206;28;20244;-67
2022/11/06 03:15:51;;;;;;;5.15;4.75;;;17.30;83.00;;;;;;5067904;28;20183;-67
2022/11/06 03:18:41;;;;;;;5.03;4.63;;;17.30;83.30;;;;;;5068061;28;20191;-66
2022/11/06 03:21:29;;;;;;;5.57;5.07;;;17.20;83.10;;;;;;5067980;28;20175;-67
2022/11/06 03:24:12;;;;;;;5.30;4.80;;;17.30;82.60;;;;;;5068199;28;20260;-67
2022/11/06 03:26:47;;;;;;;4.70;4.30;;;17.20;82.40;;;;;;5067749;28;20202;-67
2022/11/06 03:29:32;;;;;;;5.57;5.07;;;17.20;82.70;;;;;;5067704;28;20194;-67
2022/11/06 03:32:17;;;;;;;5.28;4.78;;;17.30;82.90;;;;;;5050965;28;20178;-67
2022/11/06 03:35:18;;;;;;;5.35;4.85;;;17.20;83.00;;;;;;5025998;28;20183;-67
2022/11/06 03:38:40;;;;;;;5.43;4.93;;;17.20;82.50;;;;;;5025356;28;20297;-67
2022/11/06 03:41:22;;;;;;;5.20;4.70;;;17.30;82.80;;;;;;4990562;28;20193;-67
2022/11/06 03:43:54;;;;;;;5.45;4.95;;;17.20;82.90;;;;;;4983429;28;20214;-67
2022/11/06 03:46:25;;;;;;;5.30;4.80;;;17.30;82.90;;;;;;5015668;28;20310;-67
2022/11/06 03:49:02;;;;;;;5.35;4.88;;;17.30;82.40;;;;;;5040211;28;20179;-67
2022/11/06 03:52:01;;;;;;;4.93;4.53;;;17.30;82.40;;;;;;5047645;28;20175;-66
2022/11/06 03:54:51;;;;;;;5.22;4.72;;;17.30;82.30;;;;;;5059109;28;20191;-67
2022/11/06 03:57:43;;;;;;;5.35;4.85;;;17.30;82.10;;;;;;5038557;28;20211;-67
2022/11/06 04:00:10;;;;;;;5.38;4.90;;;17.30;82.70;;;;;;5067501;28;20179;-67
2022/11/06 04:02:49;;;;;;;5.25;4.75;;;17.20;82.60;;;;;;5050913;28;20202;-67
2022/11/06 04:05:23;;;;;;;4.97;4.57;;;17.20;82.50;;;;;;5026146;28;20193;-67
2022/11/06 04:16:17;;;;;;;5.35;4.85;;;17.20;82.10;;;;;;5071239;28;20268;-67
2022/11/06 04:18:43;;;;;;;4.97;4.57;;;17.20;82.10;;;;;;5055516;28;20179;-67
2022/11/06 04:21:24;;;;;;;4.80;4.30;;;17.20;82.30;;;;;;5054471;28;20274;-67
2022/11/06 04:28:03;;;;;;;4.70;4.30;;;17.30;82.20;;;;;;5055308;28;20206;-66
2022/11/06 04:30:54;;;;;;;4.57;4.18;;;17.20;81.90;;;;;;5013928;28;20229;-67
2022/11/06 04:34:09;;;;;;;4.53;4.13;;;17.20;82.20;;;;;;5048566;28;20186;-67
2022/11/06 04:36:49;;;;;;;4.25;3.90;;;17.20;81.80;;;;;;5011998;28;20233;-68
2022/11/06 04:40:08;;;;;;;4.70;4.30;;;17.20;81.80;;;;;;5035265;28;20179;-67
2022/11/06 04:43:13;;;;;;;4.13;3.80;;;17.20;82.10;;;;;;5038485;28;20297;-67
2022/11/06 04:45:46;;;;;;;5.00;4.47;;;17.20;81.60;;;;;;5062643;28;20247;-67
2022/11/06 04:48:13;;;;;;;4.10;3.80;;;17.20;81.50;;;;;;5070357;28;20686;-66
2022/11/06 04:50:50;;;;;;;4.32;4.03;;;17.20;82.30;;;;;;5054213;28;20278;-66
2022/11/06 04:53:17;;;;;;;4.40;4.00;;;17.20;81.50;;;;;;5070870;28;20206;-67
2022/11/06 04:55:58;;;;;;;4.32;4.03;;;17.20;81.60;;;;;;5070382;28;20571;-66
2022/11/06 04:58:24;;;;;;;4.55;4.07;;;17.20;81.80;;;;;;5053969;28;20185;-66
2022/11/06 05:00:50;;;;;;;3.90;3.60;;;17.20;81.60;;;;;;5055056;28;20174;-66
2022/11/06 05:03:16;;;;;;;4.10;3.78;;;17.20;81.50;;;;;;5053807;28;20245;-66
2022/11/06 05:05:43;;;;;;;4.10;3.80;;;17.20;81.60;;;;;;5053671;28;20205;-66
2022/11/06 05:08:15;;;;;;;4.45;4.05;;;17.20;81.50;;;;;;5053723;28;20243;-66
2022/11/06 05:10:42;;;;;;;4.15;3.80;;;17.20;81.60;;;;;;5053614;28;20171;-65
2022/11/06 05:13:08;;;;;;;4.28;3.88;;;17.20;82.00;;;;;;5049039;28;20245;-66
2022/11/06 05:15:34;;;;;;;3.83;3.53;;;17.20;81.30;;;;;;5058330;28;20179;-66
2022/11/06 05:18:00;;;;;;;4.07;3.78;;;17.20;81.00;;;;;;5033593;28;20300;-66
2022/11/06 05:20:26;;;;;;;4.35;3.95;;;17.20;81.10;;;;;;5033793;28;20223;-67
2022/11/06 05:22:59;;;;;;;4.00;3.70;;;17.20;80.70;;;;;;5032870;28;20207;-67
2022/11/06 05:25:37;;;;;;;3.85;3.55;;;17.20;80.90;;;;;;5033431;28;20184;-66
2022/11/06 05:28:05;;;;;;;4.20;3.80;;;17.20;80.70;;;;;;5050053;28;20195;-67
2022/11/06 05:30:33;;;;;;;4.10;3.80;;;17.20;81.10;;;;;;5033321;28;20187;-66
2022/11/06 05:32:58;;;;;;;3.85;3.55;;;17.20;81.30;;;;;;5034513;28;20180;-67
2022/11/06 05:35:24;;;;;;;3.72;3.38;;;17.20;82.00;;;;;;5033252;28;20278;-67
2022/11/06 05:37:50;;;;;;;4.03;3.67;;;17.20;81.00;;;;;;5033276;28;20298;-67
2022/11/06 05:40:16;;;;;;;3.65;3.35;;;17.20;81.10;;;;;;5033417;28;20188;-67
2022/11/06 05:42:43;;;;;;;3.80;3.50;;;17.20;81.00;;;;;;5034034;28;20216;-66
2022/11/06 05:45:10;;;;;;;3.53;3.22;;;17.20;81.00;;;;;;5052918;28;20191;-67
2022/11/06 05:47:40;;;;;;;4.32;3.97;;;17.20;81.00;;;;;;5052896;28;20214;-66
2022/11/06 05:50:08;;;;;;;3.92;3.55;;;17.20;81.00;;;;;;5053156;28;20182;-66
2022/11/06 05:52:35;;;;;;;3.90;3.60;;;17.20;80.80;;;;;;5054062;28;20187;-66
2022/11/06 05:55:01;;;;;;;3.85;3.55;;;17.20;80.90;;;;;;5052720;28;20214;-66
2022/11/06 05:57:26;;;;;;;3.90;3.60;;;17.20;80.60;;;;;;5069219;28;20238;-66
2022/11/06 05:59:52;;;;;;;5.18;3.90;;;17.20;80.90;;;;;;5052796;28;20197;-66
2022/11/06 06:02:18;;;;;;;3.90;3.60;;;17.20;80.40;;;;;;5052415;28;20185;-67
2022/11/06 06:04:43;;;;;;;3.78;3.47;;;17.20;80.60;;;;;;5052865;28;20178;-66
2022/11/06 06:07:09;;;;;;;3.90;3.60;;;17.20;80.20;;;;;;5052512;28;20191;-66
2022/11/06 06:09:35;;;;;;;3.70;3.40;;;17.20;80.50;;;;;;5053562;28;20179;-67
2022/11/06 06:12:01;;;;;;;3.70;3.40;;;17.20;80.90;;;;;;5052404;28;20187;-66
2022/11/06 06:14:26;;;;;;;4.03;3.60;;;17.10;80.20;;;;;;5046479;28;20222;-67
2022/11/06 06:16:52;;;;;;;3.85;3.38;;;17.20;80.40;;;;;;5051354;28;20693;-67
2022/11/06 06:19:18;;;;;;;3.92;3.63;;;17.20;80.30;;;;;;5051748;28;20187;-66
2022/11/06 06:21:43;;;;;;;3.47;3.17;;;17.20;80.20;;;;;;5052140;28;20186;-66
2022/11/06 06:24:09;;;;;;;3.35;3.05;;;17.20;80.40;;;;;;5035557;28;20214;-66
2022/11/06 06:26:35;;;;;;;3.50;3.20;;;17.20;80.40;;;;;;5051912;28;20232;-67
2022/11/06 06:29:02;;;;;;;3.72;3.42;;;17.20;80.70;;;;;;5053241;28;20174;-67
2022/11/06 06:31:28;;;;;;;4.05;3.65;;;17.20;80.60;;;;;;5053302;28;20186;-67
2022/11/06 06:33:53;;;;;;;4.10;3.70;;;17.20;80.50;;;;;;5051230;28;20187;-67
2022/11/06 06:36:19;;;;;;;3.45;3.15;;;17.20;81.20;;;;;;5053422;28;20212;-67
2022/11/06 06:38:45;;;;;;;4.03;3.60;;;17.20;80.60;;;;;;5050925;28;20208;-66
2022/11/06 06:41:11;;;;;;;3.50;3.20;;;17.20;80.40;;;;;;5044926;28;20190;-66
2022/11/06 06:43:36;;;;;;;4.07;3.67;;;17.20;80.50;;;;;;5051821;28;20217;-67
2022/11/06 06:46:06;;;;;;;4.07;3.70;;;17.20;80.60;;;;;;5051841;28;20187;-66
2022/11/06 06:48:33;;;;;;;3.67;3.38;;;17.20;80.40;;;;;;5051656;28;20195;-66
2022/11/06 06:51:00;;;;;;;3.97;3.58;;;17.10;80.00;;;;;;5051669;28;20224;-66
2022/11/06 06:53:27;;;;;;;3.90;3.60;;;17.20;80.30;;;;;;5051690;28;20214;-67
2022/11/06 06:55:53;;;;;;;3.83;3.53;;;17.20;80.30;;;;;;5068171;28;20265;-66
2022/11/06 06:58:19;;;;;;;4.10;3.75;;;17.20;80.20;;;;;;5051584;28;20293;-67
2022/11/06 07:00:45;;;;;;;4.00;3.60;;;17.20;80.90;;;;;;5051436;28;20186;-67
2022/11/06 07:03:12;;;;;;;4.40;4.00;;;17.20;80.00;;;;;;5045713;28;20222;-67
2022/11/06 07:05:38;;;;;;;4.40;4.00;;;17.20;80.20;;;;;;5051596;28;20186;-66
2022/11/06 07:08:04;;;;;;;4.35;3.95;;;17.20;80.10;;;;;;5052224;28;20293;-66
2022/11/06 07:10:31;;;;;;;4.10;3.78;;;17.20;80.00;;;;;;5051337;28;20182;-66
2022/11/06 07:13:01;;;;;;;4.05;3.65;;;17.20;80.10;;;;;;5051291;28;20194;-67
2022/11/06 07:15:27;;;;;;;3.97;3.60;;;17.20;80.10;;;;;;5051338;28;20186;-66
2022/11/06 07:17:52;;;;;;;4.05;3.45;;;17.20;80.10;;;;;;5047942;28;20248;-66
2022/11/06 07:20:18;;;;;;;4.18;3.78;;;17.20;80.30;;;;;;5014869;28;20218;-66
2022/11/06 07:22:44;;;;;;;4.47;4.07;;;17.20;80.10;;;;;;5043859;28;20207;-66
2022/11/06 07:25:10;;;;;;;4.30;3.90;;;17.20;80.10;;;;;;5051283;28;20186;-66
2022/11/06 07:27:36;;;;;;;4.50;4.10;;;17.20;80.10;;;;;;5031062;28;20214;-65
2022/11/06 07:30:02;;;;;;;3.38;3.08;;;17.20;80.00;;;;;;5031168;28;20186;-67
2022/11/06 07:32:29;;;;;;;3.67;3.38;;;17.30;80.20;;;;;;5038278;28;20171;-63
2022/11/06 07:34:55;;;;;;;3.30;3.00;;;17.20;80.00;;;;;;5035597;28;20596;-66
2022/11/06 07:37:20;;;;;;;3.60;3.17;;;17.30;80.00;;;;;;5050810;28;20202;-65
2022/11/06 07:39:46;;;;;;;3.30;3.00;;;17.30;80.00;;;;;;5040518;28;20187;-66
2022/11/06 07:42:12;;;;;;;3.30;3.00;;;17.30;80.10;;;;;;5047751;28;20187;-66
2022/11/06 07:44:54;;;;;;;3.28;2.97;;;17.20;79.90;;;;;;5033370;28;20193;-66
2022/11/06 07:47:21;;;;;;;3.40;3.10;;;17.20;79.90;;;;;;5038686;28;20690;-65
2022/11/06 07:49:47;;;;;;;3.28;3.00;;;17.30;80.00;;;;;;5037709;28;20167;-66
2022/11/06 07:52:13;;;;;;;3.17;2.95;;;17.30;80.00;;;;;;5058174;28;20653;-66
2022/11/06 07:54:38;;;;;;;3.10;2.80;;;17.30;79.80;;;;;;5058876;28;20186;-65
2022/11/06 07:57:04;;;;;;;3.10;2.80;;;17.30;80.60;;;;;;5075889;22;20227;-68
2022/11/06 07:59:30;;;;;;;2.90;2.70;;;17.30;80.00;;;;;;5038215;28;20183;-70
2022/11/06 08:01:56;;;;;;;2.95;2.75;;;17.30;79.90;;;;;;5036724;28;20195;-70
2022/11/06 08:04:21;;;;;;;3.38;3.08;;;17.30;79.80;;;;;;5046019;28;20210;-69
2022/11/06 08:06:47;;;;;;;2.97;2.78;;;17.30;79.80;;;;;;5033924;28;20262;-69
2022/11/06 08:09:13;;;;;;;2.75;2.55;;;17.30;80.00;;;;;;5017417;28;20202;-69
2022/11/06 08:11:38;;;;;;;3.22;3.03;;;17.30;79.90;;;;;;5018051;28;20183;-69
2022/11/06 08:14:04;;;;;;;3.05;2.75;;;17.30;80.00;;;;;;5018024;28;20250;-70
2022/11/06 08:16:30;;;;;;;2.95;2.75;;;17.30;80.10;;;;;;5001428;28;20261;-69
2022/11/06 08:18:56;;;;;;;3.13;2.83;;;17.30;80.10;;;;;;5017407;28;20195;-69
2022/11/06 08:21:21;;;;;;;3.17;2.88;;;17.30;80.00;;;;;;5017875;28;20180;-69
2022/11/06 08:23:47;;;;;;;2.88;2.67;;;17.30;80.00;;;;;;5017659;28;20229;-70
2022/11/06 08:26:13;;;;;;;2.88;2.67;;;17.30;80.00;;;;;;5017425;28;20187;-69
2022/11/06 08:28:39;;;;;;;3.28;2.97;;;17.30;80.00;;;;;;5001059;28;20211;-68
2022/11/06 08:31:06;;;;;;;2.80;2.60;;;17.30;80.10;;;;;;5017757;28;20188;-69
2022/11/06 08:33:33;;;;;;;2.90;2.70;;;17.30;79.80;;;;;;5010344;28;20195;-69
2022/11/06 08:36:05;;;;;;;2.88;2.67;;;17.30;79.80;;;;;;4999323;28;20243;-69
2022/11/06 08:38:30;;;;;;;3.25;2.67;;;17.40;79.90;;;;;;5013810;28;20212;-70
2022/11/06 08:40:56;;;;;;;2.30;2.15;;;17.40;80.00;;;;;;5014250;28;20188;-69
2022/11/06 08:43:25;;;;;;;2.85;2.60;;;17.40;80.00;;;;;;5014365;28;20251;-70
2022/11/06 08:45:51;;;;;;;2.53;2.33;;;17.40;80.00;;;;;;4997758;28;20775;-69
2022/11/06 08:48:17;;;;;;;2.50;2.30;;;17.40;79.90;;;;;;4997795;28;20201;-69
2022/11/06 08:50:43;;;;;;;2.85;2.40;;;17.40;79.90;;;;;;4997483;28;20185;-69
2022/11/06 08:53:09;;;;;;;2.90;2.70;;;17.40;79.90;;;;;;4981404;28;20207;-69
2022/11/06 08:55:38;;;;;;;2.33;2.13;;;17.40;79.80;;;;;;4981321;28;20192;-70
2022/11/06 08:58:05;;;;;;;2.42;2.22;;;17.40;79.70;;;;;;4993461;28;20275;-69
2022/11/06 09:00:32;;;;;;;2.53;2.33;;;17.40;79.90;;;;;;4994829;28;20220;-69
2022/11/06 09:03:05;;;;;;;2.50;2.30;;;17.40;79.70;;;;;;4986208;28;20228;-68
2022/11/06 09:05:32;;;;;;;2.35;2.15;;;17.40;79.90;;;;;;5011151;28;20650;-69
2022/11/06 09:07:58;;;;;;;2.33;2.13;;;17.40;79.80;;;;;;5013701;28;20211;-68
2022/11/06 09:10:25;;;;;;;2.60;2.40;;;17.40;79.90;;;;;;5030526;28;20203;-69
2022/11/06 09:12:51;;;;;;;2.40;2.20;;;17.40;80.00;;;;;;5013988;28;20710;-70
2022/11/06 09:15:19;;;;;;;2.53;2.33;;;17.40;79.70;;;;;;5014003;28;20184;-70
2022/11/06 09:17:50;;;;;;;3.13;2.28;;;17.50;80.10;;;;;;4997012;28;20212;-69
2022/11/06 09:20:18;;;;;;;2.28;2.08;;;17.50;79.90;;;;;;5013923;28;20192;-70
2022/11/06 09:22:45;;;;;;;2.45;2.22;;;17.40;79.90;;;;;;5013468;28;20223;-69
2022/11/06 09:25:12;;;;;;;2.00;1.90;;;17.50;80.00;;;;;;5013774;28;20218;-70
2022/11/06 09:27:48;;;;;;;2.28;2.08;;;17.50;80.00;;;;;;5014570;28;20250;-70
2022/11/06 09:30:17;;;;;;;2.60;2.40;;;17.50;80.10;;;;;;5013879;28;20180;-70
2022/11/06 09:32:50;;;;;;;1.88;1.75;;;17.50;80.20;;;;;;5005321;28;20196;-69
2022/11/06 09:35:17;;;;;;;2.40;2.20;;;17.50;80.30;;;;;;4996858;28;20195;-69
2022/11/06 09:37:43;;;;;;;2.38;2.10;;;17.50;80.20;;;;;;5028071;28;20222;-69
2022/11/06 09:40:31;;;;;;;1.83;1.73;;;17.50;80.20;;;;;;4998120;28;20199;-70
2022/11/06 09:43:30;;;;;;;2.40;2.20;;;17.50;79.90;;;;;;5030031;28;20223;-70
2022/11/06 09:46:23;;;;;;;2.17;1.98;;;17.50;80.00;;;;;;5013222;28;20214;-69
2022/11/06 09:49:02;;;;;;;2.03;1.90;;;17.50;80.30;;;;;;5012873;28;20275;-68
2022/11/06 09:51:40;;;;;;;2.33;2.13;;;17.50;80.20;;;;;;5014353;28;20172;-68
2022/11/06 09:54:21;;;;;;;2.90;2.00;;;17.50;80.20;;;;;;5013323;28;20187;-67
2022/11/06 09:57:00;;;;;;;2.47;2.20;;;17.50;80.20;;;;;;5014035;28;20224;-67
2022/11/06 09:59:27;;;;;;;2.08;1.90;;;17.50;80.20;;;;;;5004584;28;20264;-68
2022/11/06 10:02:00;;;;;;;2.25;2.05;;;17.50;80.20;;;;;;5002161;28;20234;-67
2022/11/06 10:04:47;;;;;;;1.73;1.63;;;17.50;80.40;;;;;;5006682;28;20224;-67
2022/11/06 10:07:32;;;;;;;2.35;2.15;;;17.50;80.50;;;;;;5011340;28;20446;-68
2022/11/06 10:10:01;;;;;;;1.90;1.80;;;17.50;80.60;;;;;;4987150;28;20185;-69
2022/11/06 10:12:44;;;;;;;2.25;2.05;;;17.50;80.50;;;;;;5029246;28;20192;-69
2022/11/06 10:15:29;;;;;;;1.77;1.67;;;17.50;80.50;;;;;;5029446;28;20177;-69
2022/11/06 10:18:42;;;;;;;2.42;2.22;;;17.50;80.70;;;;;;5010634;28;20227;-68
2022/11/06 10:21:23;;;;;;;2.00;1.90;;;17.50;80.50;;;;;;5005169;28;20192;-69
2022/11/06 10:23:58;;;;;;;1.95;1.80;;;17.50;80.60;;;;;;4996432;28;20303;-69
2022/11/06 10:26:54;;;;;;;1.85;1.75;;;17.50;80.40;;;;;;4996230;28;20183;-69
2022/11/06 10:30:05;;;;;;;1.70;1.60;;;17.50;80.60;;;;;;5012121;28;20192;-69
2022/11/06 10:33:00;;;;;;;1.77;1.67;;;17.50;80.50;;;;;;4948396;28;20211;-69
2022/11/06 10:35:56;;;;;;;2.13;1.85;;;17.60;80.50;;;;;;4994022;28;20188;-69
2022/11/06 10:38:32;;;;;;;1.80;1.70;;;17.50;80.50;;;;;;5005250;28;20216;-69
2022/11/06 10:41:00;;;;;;;1.98;1.80;;;17.50;80.60;;;;;;5004490;28;20185;-69
2022/11/06 10:43:39;;;;;;;1.60;1.50;;;17.50;80.40;;;;;;5005626;28;20208;-69
2022/11/06 10:46:45;;;;;;;1.95;1.85;;;17.50;80.40;;;;;;5019290;28;20191;-69
2022/11/06 10:49:28;;;;;;;1.63;1.52;;;17.50;80.50;;;;;;4935837;29;20193;-69
2022/11/06 10:52:18;;;;;;;1.58;1.48;;;17.50;80.80;;;;;;4990309;28;20193;-69
2022/11/06 10:55:10;;;;;;;1.88;1.77;;;17.50;80.70;;;;;;5008834;28;20181;-69
2022/11/06 10:58:07;;;;;;;1.70;1.60;;;17.50;80.50;;;;;;5003767;28;20239;-69
2022/11/06 11:00:34;;;;;;;2.47;1.80;;;17.50;80.50;;;;;;4995576;28;20192;-69
2022/11/06 11:03:05;;;;;;;1.80;1.70;;;17.50;80.50;;;;;;5001197;28;20209;-68
2022/11/06 11:05:39;;;;;;;2.00;1.80;;;17.60;80.70;;;;;;4992384;28;20171;-69
2022/11/06 11:08:26;;;;;;;1.80;1.70;;;17.50;80.70;;;;;;4998748;28;20211;-68
2022/11/06 11:10:51;;;;;;;2.08;1.73;;;17.60;80.90;;;;;;5002332;28;20246;-69
2022/11/06 11:13:20;;;;;;;1.67;1.58;;;17.60;80.80;;;;;;5011976;28;20180;-69
2022/11/06 11:15:47;;;;;;;1.83;1.73;;;17.60;80.60;;;;;;5028330;28;20223;-69
2022/11/06 11:18:29;;;;;;;1.63;1.52;;;17.60;80.70;;;;;;4995299;28;20208;-68
2022/11/06 11:21:18;;;;;;;2.00;1.80;;;17.60;80.50;;;;;;5012462;28;20164;-69
2022/11/06 11:24:00;;;;;;;1.60;1.50;;;17.60;80.40;;;;;;5028125;28;20200;-69
2022/11/06 11:26:32;;;;;;;2.15;1.65;;;17.60;80.60;;;;;;5016196;28;20173;-68
2022/11/06 11:29:10;;;;;;;1.80;1.70;;;17.60;80.60;;;;;;4986206;28;20192;-69
2022/11/06 11:31:37;;;;;;;1.73;1.63;;;17.60;80.40;;;;;;4992213;28;20284;-69
2022/11/06 11:34:15;;;;;;;2.45;1.60;;;17.60;80.60;;;;;;4993080;28;20185;-69
2022/11/06 11:37:27;;;;;;;1.83;1.73;;;17.60;80.60;;;;;;4986433;28;20219;-69
2022/11/06 11:39:53;;;;;;;1.15;1.05;;;17.60;80.50;;;;;;5021249;28;20188;-69
2022/11/06 11:42:31;;;;;;;1.63;1.35;;;17.60;80.50;;;;;;4996593;28;20195;-69
2022/11/06 11:45:09;;;;;;;1.65;1.50;;;17.60;80.10;;;;;;4975709;28;20192;-69
2022/11/06 11:47:37;;;;;;;1.45;1.35;;;17.60;80.60;;;;;;4992791;28;20208;-69
2022/11/06 11:50:33;;;;;;;1.48;1.38;;;17.60;80.60;;;;;;4975432;28;20195;-69
2022/11/06 11:53:18;;;;;;;1.60;1.50;;;17.60;81.10;;;;;;4985090;28;20542;-69
2022/11/06 11:55:49;;;;;;;1.50;1.40;;;17.60;80.10;;;;;;4995098;28;20195;-70
2022/11/06 11:58:21;;;;;;;3.55;1.40;;;17.60;80.10;;;;;;4991343;28;20714;-69
2022/11/06 12:01:11;;;;;;;1.42;1.33;;;17.60;80.40;;;;;;5008175;28;20197;-69
2022/11/06 12:03:42;;;;;;;1.58;1.48;;;17.60;80.30;;;;;;4975126;28;20240;-69
2022/11/06 12:06:12;;;;;;;1.50;1.40;;;17.60;80.20;;;;;;4975362;28;20181;-69
2022/11/06 12:08:46;;;;;;;1.73;1.63;;;17.60;80.30;;;;;;4994905;28;20727;-69
2022/11/06 12:11:26;;;;;;;1.48;1.33;;;17.60;80.60;;;;;;4994712;28;20177;-69
2022/11/06 12:14:38;;;;;;;2.95;1.75;;;17.60;80.50;;;;;;4991430;28;20252;-69
2022/11/06 12:17:18;;;;;;;1.60;1.50;;;17.60;80.40;;;;;;4900653;29;20234;-69
2022/11/06 12:19:51;;;;;;;2.55;1.73;;;17.60;80.20;;;;;;4972273;28;20201;-69
2022/11/06 12:22:26;;;;;;;1.75;1.60;;;17.60;80.10;;;;;;4976784;28;20177;-69
2022/11/06 12:25:20;;;;;;;1.60;1.50;;;17.60;80.20;;;;;;5011090;28;20212;-69
2022/11/06 12:27:53;;;;;;;1.65;1.55;;;17.60;80.40;;;;;;4994764;28;20228;-69
2022/11/06 12:30:20;;;;;;;1.27;1.17;;;17.60;80.50;;;;;;5011032;28;20180;-69
2022/11/06 12:33:05;;;;;;;1.65;1.55;;;17.60;80.40;;;;;;5013068;28;20180;-69
2022/11/06 12:35:40;;;;;;;1.45;1.35;;;17.60;80.30;;;;;;5014686;28;20180;-70
2022/11/06 12:38:30;;;;;;;1.50;1.40;;;17.60;80.20;;;;;;5027961;28;20210;-68
2022/11/06 12:41:18;;;;;;;1.67;1.40;;;17.60;80.10;;;;;;5006751;28;20632;-69
2022/11/06 12:43:49;;;;;;;1.48;1.35;;;17.60;80.30;;;;;;4998255;28;20222;-69
2022/11/06 12:46:27;;;;;;;1.50;1.40;;;17.60;80.30;;;;;;5014357;28;20204;-69
2022/11/06 12:49:38;;;;;;;1.50;1.35;;;17.60;80.30;;;;;;5014405;28;20183;-69
2022/11/06 12:52:16;;;;;;;1.92;1.13;;;17.60;80.20;;;;;;5015585;28;20188;-70
2022/11/06 12:55:00;;;;;;;1.38;1.27;;;17.60;80.10;;;;;;5014150;28;20183;-69
2022/11/06 12:58:10;;;;;;;2.28;1.50;;;17.60;80.20;;;;;;5021977;28;20226;-68
2022/11/06 13:01:14;;;;;;;1.55;1.45;;;17.60;80.30;;;;;;4994672;28;20189;-69
2022/11/06 13:04:13;;;;;;;1.52;1.42;;;17.60;80.30;;;;;;4999926;28;20259;-68
2022/11/06 13:07:11;;;;;;;1.40;1.30;;;17.60;80.20;;;;;;5024428;28;20177;-68
2022/11/06 13:09:51;;;;;;;1.90;1.30;;;17.60;80.50;;;;;;4978277;28;20189;-69
2022/11/06 13:12:29;;;;;;;1.52;1.42;;;17.60;80.20;;;;;;4978199;28;20195;-69
2022/11/06 13:15:25;;;;;;;1.52;1.42;;;17.60;80.30;;;;;;4978083;28;20188;-69
2022/11/06 13:18:13;;;;;;;1.20;1.20;;;17.60;80.00;;;;;;4977945;28;20223;-69
2022/11/06 13:20:51;;;;;;;1.42;1.30;;;17.60;80.30;;;;;;4994237;28;20192;-69
2022/11/06 13:23:36;;;;;;;1.50;1.40;;;17.60;80.20;;;;;;5010389;28;20308;-69
2022/11/06 13:26:07;;;;;;;1.13;1.13;;;17.60;80.40;;;;;;4994393;28;20287;-69
2022/11/06 13:28:42;;;;;;;1.10;1.00;;;17.60;80.30;;;;;;4993840;28;20201;-68
2022/11/06 13:31:13;;;;;;;1.30;1.20;;;17.60;80.30;;;;;;4995319;28;20176;-69
2022/11/06 13:33:45;;;;;;;1.30;1.20;;;17.60;80.30;;;;;;5013510;28;20651;-70
2022/11/06 13:36:12;;;;;;;2.58;1.40;;;17.60;80.30;;;;;;5020384;28;20287;-69
2022/11/06 13:39:09;;;;;;;1.50;1.33;;;17.70;80.20;;;;;;5010081;28;20220;-70